Hanksville, Utah
Current Conditions -  °F | °C
As of 4:53 PM on Saturday 22 Nov 2014 (Local Time) from KCNY Reporting Station
Broken Clouds Broken Clouds  
Wind Chill: 45°   Ceiling: 8000
Heat Index: 45°   Visibility: 10mi
Dew Point: 18°   Wind: 3mph
Humidity: 34%   Direction: 290°WNW
Pressure: 29.81"   Gusts: NA
Location:  38.37°N, 110.71°W
Report Text: KCNY 222353Z AUTO 29003KT 10SM BKN080 BKN100 07/M08 A2981 RMK AO2 SLP104 T00721078 10100 20061 56020
Loading
Personal Weather Stations






























Interactive Weather Map New forecast layout! Learn more

10-Day Weather Forecast

Advertisements
Track Severe Weather on mobile